Map

Track Data

SID SEASON NUMBER BASIN SUBBASIN NAME ISO_TIME NATURE LAT LON WMO_WIND WMO_PRES WMO_AGENCY TRACK_TYPE DIST2LAND LANDFALL IFLAG USA_AGENCY USA_ATCF_ID USA_LAT USA_LON USA_RECORD USA_STATUS USA_WIND USA_PRES USA_SSHS USA_R34_NE USA_R34_SE USA_R34_SW USA_R34_NW USA_R50_NE USA_R50_SE USA_R50_SW USA_R50_NW USA_R64_NE USA_R64_SE USA_R64_SW USA_R64_NW USA_POCI USA_ROCI USA_RMW USA_EYE TOKYO_LAT TOKYO_LON TOKYO_GRADE TOKYO_WIND TOKYO_PRES TOKYO_R50_DIR TOKYO_R50_LONG TOKYO_R50_SHORT TOKYO_R30_DIR TOKYO_R30_LONG TOKYO_R30_SHORT TOKYO_LAND CMA_LAT CMA_LON CMA_CAT CMA_WIND CMA_PRES HKO_LAT HKO_LON HKO_CAT HKO_WIND HKO_PRES NEWDELHI_LAT NEWDELHI_LON NEWDELHI_GRADE NEWDELHI_WIND NEWDELHI_PRES NEWDELHI_CI NEWDELHI_DP NEWDELHI_POCI REUNION_LAT REUNION_LON REUNION_TYPE REUNION_WIND REUNION_PRES REUNION_TNUM REUNION_CI REUNION_RMW REUNION_R34_NE REUNION_R34_SE REUNION_R34_SW REUNION_R34_NW REUNION_R50_NE REUNION_R50_SE REUNION_R50_SW REUNION_R50_NW REUNION_R64_NE REUNION_R64_SE REUNION_R64_SW REUNION_R64_NW BOM_LAT BOM_LON BOM_TYPE BOM_WIND BOM_PRES BOM_TNUM BOM_CI BOM_RMW BOM_R34_NE BOM_R34_SE BOM_R34_SW BOM_R34_NW BOM_R50_NE BOM_R50_SE BOM_R50_SW BOM_R50_NW BOM_R64_NE BOM_R64_SE BOM_R64_SW BOM_R64_NW BOM_ROCI BOM_POCI BOM_EYE BOM_POS_METHOD BOM_PRES_METHOD NADI_LAT NADI_LON NADI_CAT NADI_WIND NADI_PRES WELLINGTON_LAT WELLINGTON_LON WELLINGTON_WIND WELLINGTON_PRES DS824_LAT DS824_LON DS824_STAGE DS824_WIND DS824_PRES TD9636_LAT TD9636_LON TD9636_STAGE TD9636_WIND TD9636_PRES TD9635_LAT TD9635_LON TD9635_WIND TD9635_PRES TD9635_ROCI NEUMANN_LAT NEUMANN_LON NEUMANN_CLASS NEUMANN_WIND NEUMANN_PRES MLC_LAT MLC_LON MLC_CLASS MLC_WIND MLC_PRES USA_GUST BOM_GUST BOM_GUST_PER REUNION_GUST REUNION_GUST_PER USA_SEAHGT USA_SEARAD_NE USA_SEARAD_SE USA_SEARAD_SW USA_SEARAD_NW STORM_SPEED STORM_DIR
1985282N12090 1985 99 NI BB NOT_NAMED 1985-10-08 18:00:00 NR 11.8000 90.4000 main 622 559 O_________O___ jtwc_io IO031985 11.8000 90.4000 20 -1 11.8000 90.4000 1 20 12 30
1985282N12090 1985 99 NI BB NOT_NAMED 1985-10-08 21:00:00 NR 12.3007 90.6926 main 559 512 P_________P___ IO031985 12.2852 90.6895 20 -1 12.3163 90.6957 1 20 11 21
1985282N12090 1985 99 NI BB NOT_NAMED 1985-10-09 00:00:00 NR 12.8000 90.8000 main 512 490 O_________O___ jtwc_io IO031985 12.8000 90.8000 20 -1 12.8000 90.8000 1 20 10 354
1985282N12090 1985 99 NI BB NOT_NAMED 1985-10-09 03:00:00 NR 13.2854 90.5808 main 491 491 P_________P___ IO031985 13.3447 90.5928 22 -1 13.2260 90.5688 1 22 11 322
1985282N12090 1985 99 NI BB NOT_NAMED 1985-10-09 06:00:00 NR 13.6979 90.0778 main 510 510 O_________P___ jtwc_io IO031985 13.8000 90.1000 25 -1 13.5959 90.0557 1 25 14 301
1985282N12090 1985 99 NI BB NOT_NAMED 1985-10-09 09:00:00 NR 13.9814 89.3946 main 562 562 P_________P___ IO031985 14.0451 89.4247 27 -1 13.9177 89.3645 1 27 15 289
1985282N12090 1985 99 NI BB NOT_NAMED 1985-10-09 12:00:00 NR 14.2000 88.6000 main 634 588 O_________O___ jtwc_io IO031985 14.2000 88.6000 30 -1 14.2000 88.6000 1 30 16 286
1985282N12090 1985 99 NI BB NOT_NAMED 1985-10-09 15:00:00 NR 14.4193 87.7957 main 588 516 P_________P___ IO031985 14.3927 87.7274 32 -1 14.4458 87.8640 1 32 16 285
1985282N12090 1985 99 NI BB NOT_NAMED 1985-10-09 18:00:00 NR 14.6296 86.9948 main 516 455 O_________P___ jtwc_io IO031985 14.6000 86.9000 35 0 14.6592 87.0895 1 35 15 286
1985282N12090 1985 99 NI BB NOT_NAMED 1985-10-09 21:00:00 NR 14.8475 86.2851 main 455 386 P_________P___ IO031985 14.8273 86.2249 37 0 14.8678 86.3453 1 37 13 291
1985282N12090 1985 99 NI BB NOT_NAMED 1985-10-10 00:00:00 NR 15.1000 85.7000 main 386 332 O_________O___ jtwc_io IO031985 15.1000 85.7000 40 0 15.1000 85.7000 2 40 11 300
1985282N12090 1985 99 NI BB NOT_NAMED 1985-10-10 03:00:00 NR 15.4125 85.2689 main 332 279 P_________P___ IO031985 15.4422 85.3124 42 0 15.3828 85.2254 2 41 10 311
1985282N12090 1985 99 NI BB NOT_NAMED 1985-10-10 06:00:00 NR 15.7480 84.9284 main 279 232 O_________P___ jtwc_io IO031985 15.8000 85.0000 45 0 15.6960 84.8568 2 42 9 315
1985282N12090 1985 99 NI BB NOT_NAMED 1985-10-10 09:00:00 NR 16.0644 84.6011 main 224 178 P_________P___ IO031985 16.0925 84.6423 45 0 16.0363 84.5598 2 43 9 317
1985282N12090 1985 99 NI BB NOT_NAMED 1985-10-10 12:00:00 NR 16.4000 84.3000 main 178 123 O_________O___ jtwc_io IO031985 16.4000 84.3000 45 0 16.4000 84.3000 2 45 9 322
1985282N12090 1985 99 NI BB NOT_NAMED 1985-10-10 15:00:00 NR 16.8043 84.0001 main 123 69 P_________P___ IO031985 16.7850 83.9775 47 0 16.8236 84.0227 2 46 10 327
1985282N12090 1985 99 NI BB NOT_NAMED 1985-10-10 18:00:00 NR 17.2305 83.7364 main 69 23 O_________P___ jtwc_io IO031985 17.2000 83.7000 50 0 17.2610 83.7727 2 47 10 331
1985282N12090 1985 99 NI BB NOT_NAMED 1985-10-10 21:00:00 NR 17.6489 83.5144 main 23 0 P_________P___ IO031985 17.6299 83.4924 50 0 17.6680 83.5364 2 48 9 332
1985282N12090 1985 99 NI BB NOT_NAMED 1985-10-11 00:00:00 NR 18.0000 83.3000 main 0 0 O_________O___ jtwc_io IO031985 18.0000 83.3000 50 0 18.0000 83.3000 2 50 7 324
1985282N12090 1985 99 NI BB NOT_NAMED 1985-10-11 03:00:00 NR 18.2350 83.0593 main 0 0 P_________P___ IO031985 18.2401 83.0651 42 0 18.2299 83.0535 2 42 6 310
1985282N12090 1985 99 NI BB NOT_NAMED 1985-10-11 06:00:00 NR 18.4000 82.8000 main 0 O_________O___ jtwc_io IO031985 18.4000 82.8000 35 0 18.4000 82.8000 2 35 6 304

About IBTrACS Database

This database is a web-friendly format of International Best Track Archive for Climate Stewardship (IBTrACS), a global best track data archive curated by NOAA dating back to 1842.

Updated: 2021-12-08